createdAt,value
2019-04-20T00:01:28.111Z,100475.89
2019-04-20T00:03:52.066Z,100479.79
2019-04-20T00:06:22.098Z,100485.28
2019-04-20T00:08:55.730Z,100481.89
2019-04-20T00:11:29.511Z,100477.20
2019-04-20T00:14:00.138Z,100472.27
2019-04-20T00:16:23.072Z,100484.02
2019-04-20T00:18:56.626Z,100482.77
2019-04-20T00:21:47.330Z,100478.30
2019-04-20T00:24:16.988Z,100482.73
2019-04-20T00:27:11.730Z,100471.80
2019-04-20T00:29:30.977Z,100466.58
2019-04-20T00:31:56.558Z,100461.89
2019-04-20T00:34:24.107Z,100466.33
2019-04-20T00:36:47.334Z,100472.56
2019-04-20T00:39:17.173Z,100474.64
2019-04-20T00:41:51.431Z,100474.15
2019-04-20T00:44:24.245Z,100473.05
2019-04-20T00:47:01.011Z,100468.56
2019-04-20T00:49:35.072Z,100469.36
2019-04-20T00:52:18.817Z,100483.67
2019-04-20T00:54:22.250Z,100471.11
2019-04-20T00:56:53.266Z,100465.38
2019-04-20T00:59:35.383Z,100474.03
2019-04-20T01:02:09.082Z,100468.52
2019-04-20T01:04:42.054Z,100484.15
2019-04-20T01:07:11.665Z,100481.03
2019-04-20T01:09:47.836Z,100478.71
2019-04-20T01:12:22.564Z,100481.83
2019-04-20T01:14:55.179Z,100488.38
2019-04-20T01:17:18.280Z,100486.03
2019-04-20T01:19:48.817Z,100488.44
2019-04-20T01:22:21.894Z,100494.98
2019-04-20T01:24:48.714Z,100498.09
2019-04-20T01:27:33.916Z,100498.89
2019-04-20T01:29:57.873Z,100493.38
2019-04-20T01:32:30.119Z,100495.23
2019-04-20T01:35:03.809Z,100497.81
2019-04-20T01:37:35.432Z,100491.28
2019-04-20T01:39:55.109Z,100481.61
2019-04-20T01:42:23.405Z,100483.40
2019-04-20T01:44:54.948Z,100487.59
2019-04-20T01:47:30.602Z,100486.80
2019-04-20T01:49:59.850Z,100490.19
2019-04-20T01:52:28.609Z,100492.81
2019-04-20T01:55:30.521Z,100498.05
2019-04-20T01:58:00.416Z,100492.06
2019-04-20T02:00:23.260Z,100488.69
2019-04-20T02:02:57.067Z,100488.39
2019-04-20T02:05:28.964Z,100483.18
2019-04-20T02:07:54.183Z,100484.47
2019-04-20T02:10:31.959Z,100482.84
2019-04-20T02:12:59.370Z,100479.70
2019-04-20T02:15:32.990Z,100486.39
2019-04-20T02:18:07.906Z,100479.35
2019-04-20T02:20:43.924Z,100480.70
2019-04-20T02:23:11.312Z,100479.16
2019-04-20T02:25:26.976Z,100487.38
2019-04-20T02:28:14.670Z,100494.34
2019-04-20T02:36:47.870Z,100491.78
2019-04-20T02:41:17.784Z,100494.31
2019-04-20T02:44:11.710Z,100493.65
2019-04-20T02:46:14.798Z,100494.97
2019-04-20T02:49:01.395Z,100490.95
2019-04-20T02:51:28.812Z,100487.28
2019-04-20T02:54:05.790Z,100490.27
2019-04-20T02:59:12.622Z,100496.11
2019-04-20T03:01:29.411Z,100493.45
2019-04-20T03:03:43.234Z,100500.55
2019-04-20T03:06:19.508Z,100494.37
2019-04-20T03:08:56.415Z,100499.50
2019-04-20T03:11:29.489Z,100506.06
2019-04-20T03:13:58.117Z,100517.82
2019-04-20T03:16:24.280Z,100515.66
2019-04-20T03:18:55.710Z,100517.82
2019-04-20T03:21:34.605Z,100524.38
2019-04-20T03:24:06.800Z,100520.16
2019-04-20T03:26:33.012Z,100518.30
2019-04-20T03:29:13.074Z,100523.17
2019-04-20T03:36:59.378Z,100528.74
2019-04-20T03:39:22.180Z,100533.14
2019-04-20T03:41:42.005Z,100531.63
2019-04-20T03:44:12.679Z,100533.72
2019-04-20T03:46:45.591Z,100532.45
2019-04-20T03:49:28.987Z,100531.95
2019-04-20T03:52:02.608Z,100533.56
2019-04-20T03:54:30.864Z,100537.53
2019-04-20T03:57:19.659Z,100540.09
2019-04-20T03:59:41.274Z,100534.14
2019-04-20T04:05:06.162Z,100541.27
2019-04-20T04:07:29.591Z,100543.45
2019-04-20T04:10:04.701Z,100550.88
2019-04-20T04:12:56.821Z,100552.77
2019-04-20T04:15:25.626Z,100548.92
2019-04-20T04:17:58.804Z,100553.30
2019-04-20T04:20:33.259Z,100551.19
2019-04-20T04:23:10.316Z,100555.34
2019-04-20T04:25:39.735Z,100555.08
2019-04-20T04:28:12.492Z,100552.67
2019-04-20T04:30:43.063Z,100556.38
2019-04-20T04:33:41.088Z,100557.81
2019-04-20T04:35:44.320Z,100563.30
2019-04-20T04:38:19.454Z,100566.48
2019-04-20T04:41:00.738Z,100571.62
2019-04-20T04:43:21.157Z,100569.55
2019-04-20T04:45:36.550Z,100575.27
2019-04-20T04:48:06.786Z,100577.66
2019-04-20T04:50:44.637Z,100583.42
2019-04-20T04:53:13.424Z,100582.44
2019-04-20T04:55:45.766Z,100577.57
2019-04-20T04:58:06.858Z,100574.92
2019-04-20T05:00:36.438Z,100576.20
2019-04-20T05:03:24.282Z,100581.50
2019-04-20T05:06:03.611Z,100585.20
2019-04-20T05:08:18.796Z,100585.99
2019-04-20T05:10:41.597Z,100588.36
2019-04-20T05:13:11.306Z,100594.58
2019-04-20T05:15:53.920Z,100591.98
2019-04-20T05:18:36.074Z,100595.61
2019-04-20T05:21:06.125Z,100595.42
2019-04-20T05:23:30.647Z,100609.53
2019-04-20T05:26:10.067Z,100609.34
2019-04-20T05:28:33.677Z,100615.60
2019-04-20T05:30:59.314Z,100618.24
2019-04-20T05:33:34.372Z,100620.88
2019-04-20T05:36:14.727Z,100625.59
2019-04-20T05:38:46.977Z,100627.70
2019-04-20T05:41:11.729Z,100632.09
2019-04-20T05:43:41.212Z,100636.43
2019-04-20T05:46:22.054Z,100634.59
2019-04-20T05:48:53.246Z,100633.30
2019-04-20T05:51:25.409Z,100636.44
2019-04-20T05:53:53.273Z,100635.95
2019-04-20T05:56:29.216Z,100633.09
2019-04-20T05:58:50.702Z,100640.89
2019-04-20T06:01:25.897Z,100646.00
2019-04-20T06:03:53.013Z,100652.30
2019-04-20T06:06:27.353Z,100655.80
2019-04-20T06:09:02.389Z,100651.70
2019-04-20T06:11:28.284Z,100650.86
2019-04-20T06:13:50.583Z,100644.00
2019-04-20T06:16:42.635Z,100646.80
2019-04-20T06:19:14.273Z,100644.09
2019-04-20T06:21:51.177Z,100647.91
2019-04-20T06:24:26.504Z,100643.52
2019-04-20T06:29:25.254Z,100638.10
2019-04-20T06:31:57.846Z,100640.17
2019-04-20T06:34:33.442Z,100632.98
2019-04-20T06:37:09.510Z,100635.98
2019-04-20T06:42:10.865Z,100637.27
2019-04-20T06:44:32.202Z,100641.88
2019-04-20T06:47:09.177Z,100639.69
2019-04-20T06:49:35.316Z,100646.61
2019-04-20T06:52:20.350Z,100640.61
2019-04-20T06:54:57.728Z,100647.75
2019-04-20T06:57:34.625Z,100645.51
2019-04-20T07:00:05.814Z,100647.53
2019-04-20T07:02:35.748Z,100652.88
2019-04-20T07:05:06.986Z,100658.84
2019-04-20T07:07:29.797Z,100667.39
2019-04-20T07:12:32.959Z,100672.80
2019-04-20T07:14:55.429Z,100671.08
2019-04-20T07:20:26.122Z,100671.19
2019-04-20T07:25:37.557Z,100672.44
2019-04-20T07:28:09.669Z,100676.06
2019-04-20T07:30:34.715Z,100668.99
2019-04-20T07:33:04.153Z,100665.34
2019-04-20T07:35:38.167Z,100669.80
2019-04-20T07:40:35.629Z,100669.38
2019-04-20T07:43:04.421Z,100672.02
2019-04-20T07:45:33.151Z,100676.27
2019-04-20T07:48:13.684Z,100677.41
2019-04-20T07:50:31.838Z,100677.81
2019-04-20T07:53:07.626Z,100678.80
2019-04-20T07:55:50.816Z,100671.34
2019-04-20T07:58:01.420Z,100669.34
2019-04-20T08:00:48.460Z,100677.13
2019-04-20T08:03:29.593Z,100676.23
2019-04-20T08:05:46.773Z,100680.13
2019-04-20T08:08:22.668Z,100683.26
2019-04-20T08:10:53.853Z,100680.87
2019-04-20T08:13:39.950Z,100681.52
2019-04-20T08:16:06.765Z,100686.27
2019-04-20T08:18:32.316Z,100688.20
2019-04-20T08:21:17.928Z,100691.94
2019-04-20T08:23:31.729Z,100690.27
2019-04-20T08:25:49.726Z,100691.48
2019-04-20T08:28:31.429Z,100688.70
2019-04-20T08:31:08.863Z,100688.52
2019-04-20T08:33:54.890Z,100694.92
2019-04-20T08:36:16.718Z,100694.64
2019-04-20T08:41:12.941Z,100687.03
2019-04-20T08:43:57.187Z,100683.58
2019-04-20T08:46:23.402Z,100685.03
2019-04-20T08:48:50.977Z,100682.73
2019-04-20T08:51:22.566Z,100682.23
2019-04-20T08:53:51.731Z,100686.12
2019-04-20T08:56:14.603Z,100676.94
2019-04-20T08:58:33.841Z,100680.58
2019-04-20T09:01:05.425Z,100680.05
2019-04-20T09:03:53.108Z,100679.98
2019-04-20T09:06:21.601Z,100677.80
2019-04-20T09:08:46.527Z,100680.22
2019-04-20T09:11:19.742Z,100679.36
2019-04-20T09:13:43.120Z,100689.12
2019-04-20T09:16:08.627Z,100689.61
2019-04-20T09:18:49.375Z,100679.41
2019-04-20T09:21:24.358Z,100686.06
2019-04-20T09:24:18.352Z,100688.90
2019-04-20T09:26:43.249Z,100696.38
2019-04-20T09:29:03.131Z,100690.38
2019-04-20T09:31:39.315Z,100692.61
2019-04-20T09:34:15.422Z,100686.13
2019-04-20T09:36:42.337Z,100689.80
2019-04-20T09:39:17.715Z,100677.44
2019-04-20T09:42:04.289Z,100682.66
2019-04-20T09:44:20.007Z,100675.81
2019-04-20T09:46:53.231Z,100681.41
2019-04-20T09:49:32.825Z,100684.25
2019-04-20T09:52:07.842Z,100687.93
2019-04-20T09:54:40.407Z,100690.75
2019-04-20T09:57:10.469Z,100696.70
2019-04-20T09:59:37.170Z,100704.70
2019-04-20T10:02:01.933Z,100707.50
2019-04-20T10:04:23.810Z,100704.35
2019-04-20T10:06:52.709Z,100702.67
2019-04-20T10:09:27.942Z,100697.97
2019-04-20T10:11:53.116Z,100702.14
2019-04-20T10:14:22.627Z,100699.26
2019-04-20T10:16:51.835Z,100697.73
2019-04-20T10:19:26.555Z,100695.42
2019-04-20T10:21:51.580Z,100681.48
2019-04-20T10:24:21.573Z,100678.50
2019-04-20T10:26:50.540Z,100674.68
2019-04-20T10:29:19.618Z,100681.59
2019-04-20T10:31:54.598Z,100680.12
2019-04-20T10:34:22.077Z,100694.52
2019-04-20T10:36:51.470Z,100686.38
2019-04-20T10:39:22.495Z,100688.79
2019-04-20T10:41:56.269Z,100683.16
2019-04-20T10:44:23.064Z,100680.34
2019-04-20T10:46:53.264Z,100679.13
2019-04-20T10:49:22.799Z,100683.36
2019-04-20T10:51:51.799Z,100677.45
2019-04-20T10:54:20.536Z,100680.08
2019-04-20T10:56:49.799Z,100675.55
2019-04-20T10:59:19.376Z,100675.91
2019-04-20T11:01:49.652Z,100686.42
2019-04-20T11:04:18.793Z,100683.36
2019-04-20T11:06:47.562Z,100691.83
2019-04-20T11:09:16.547Z,100688.85
2019-04-20T11:11:46.094Z,100690.70
2019-04-20T11:14:22.805Z,100690.66
2019-04-20T11:16:46.687Z,100690.34
2019-04-20T11:19:15.765Z,100690.02
2019-04-20T11:21:46.206Z,100693.17
2019-04-20T11:24:16.273Z,100689.40
2019-04-20T11:26:46.812Z,100694.27
2019-04-20T11:29:16.139Z,100695.42
2019-04-20T11:31:49.248Z,100698.47
2019-04-20T11:34:24.889Z,100697.27
2019-04-20T11:36:45.929Z,100692.22
2019-04-20T11:39:14.857Z,100693.59
2019-04-20T11:41:43.736Z,100704.09
2019-04-20T11:44:13.751Z,100705.28
2019-04-20T11:46:42.916Z,100699.38
2019-04-20T11:49:13.159Z,100700.33
2019-04-20T11:51:43.443Z,100697.63
2019-04-20T11:54:12.543Z,100695.17
2019-04-20T11:56:45.778Z,100694.23
2019-04-20T11:59:12.910Z,100703.47
2019-04-20T12:01:51.945Z,100700.95
2019-04-20T12:04:30.445Z,100698.31
2019-04-20T12:06:49.234Z,100695.23
2019-04-20T12:09:19.053Z,100695.69
2019-04-20T12:12:03.630Z,100706.48
2019-04-20T12:14:18.803Z,100702.55
2019-04-20T12:16:47.890Z,100703.73
2019-04-20T12:19:16.584Z,100701.66
2019-04-20T12:21:45.687Z,100696.65
2019-04-20T12:24:14.613Z,100692.82
2019-04-20T12:26:44.565Z,100693.80
2019-04-20T12:29:14.057Z,100697.19
2019-04-20T12:31:51.232Z,100696.97
2019-04-20T12:34:16.022Z,100701.60
2019-04-20T12:36:44.929Z,100701.68
2019-04-20T12:39:15.087Z,100695.36
2019-04-20T12:41:50.550Z,100691.68
2019-04-20T12:44:14.384Z,100687.55
2019-04-20T12:46:44.038Z,100691.89
2019-04-20T12:49:13.681Z,100690.42
2019-04-20T12:51:50.573Z,100686.64
2019-04-20T12:54:14.522Z,100688.88
2019-04-20T12:56:44.553Z,100684.21
2019-04-20T12:59:13.796Z,100686.83
2019-04-20T13:01:43.762Z,100709.28
2019-04-20T13:04:12.650Z,100696.76
2019-04-20T13:06:42.802Z,100711.78
2019-04-20T13:09:12.712Z,100709.68
2019-04-20T13:11:54.639Z,100706.41
2019-04-20T13:14:30.622Z,100711.22
2019-04-20T13:16:59.582Z,100701.64
2019-04-20T13:19:29.067Z,100703.36
2019-04-20T13:21:58.986Z,100698.61
2019-04-20T13:24:29.158Z,100702.98
2019-04-20T13:26:58.691Z,100696.09
2019-04-20T13:29:29.006Z,100704.25
2019-04-20T13:31:58.516Z,100704.39
2019-04-20T13:34:28.468Z,100702.52
2019-04-20T13:36:58.186Z,100705.91
2019-04-20T13:39:27.041Z,100701.72
2019-04-20T13:42:05.689Z,100702.75
2019-04-20T13:44:27.229Z,100700.50
2019-04-20T13:46:56.779Z,100702.48
2019-04-20T13:49:27.051Z,100707.47
2019-04-20T13:51:57.087Z,100697.56
2019-04-20T13:54:28.028Z,100701.11
2019-04-20T13:56:57.960Z,100692.70
2019-04-20T13:59:44.968Z,100697.99
2019-04-20T14:02:17.142Z,100695.75
2019-04-20T14:04:48.698Z,100684.67
2019-04-20T14:07:19.059Z,100690.42
2019-04-20T14:09:48.702Z,100695.38
2019-04-20T14:12:25.241Z,100696.17
2019-04-20T14:14:48.947Z,100696.10
2019-04-20T14:17:19.094Z,100694.80
2019-04-20T14:19:49.401Z,100695.96
2019-04-20T14:22:18.754Z,100696.22
2019-04-20T14:24:48.963Z,100695.71
2019-04-20T14:27:19.041Z,100694.34
2019-04-20T14:29:48.708Z,100696.25
2019-04-20T14:32:18.812Z,100698.98
2019-04-20T14:34:48.943Z,100695.89
2019-04-20T14:37:18.715Z,100696.26
2019-04-20T14:39:48.044Z,100698.39
2019-04-20T14:42:26.910Z,100700.14
2019-04-20T14:44:47.935Z,100694.63
2019-04-20T14:47:17.915Z,100689.03
2019-04-20T14:49:48.483Z,100686.95
2019-04-20T14:52:17.713Z,100695.41
2019-04-20T14:54:47.690Z,100694.93
2019-04-20T14:57:17.284Z,100689.48
2019-04-20T14:59:53.960Z,100691.73
2019-04-20T15:02:23.206Z,100687.30
2019-04-20T15:04:52.774Z,100689.03
2019-04-20T15:07:22.581Z,100685.18
2019-04-20T15:09:52.866Z,100683.09
2019-04-20T15:12:21.767Z,100690.02
2019-04-20T15:14:50.547Z,100683.31
2019-04-20T15:17:23.945Z,100681.73
2019-04-20T15:19:54.556Z,100683.35
2019-04-20T15:22:29.579Z,100679.39
2019-04-20T15:24:59.834Z,100681.47
2019-04-20T15:27:30.358Z,100683.44
2019-04-20T15:30:00.291Z,100676.42
2019-04-20T15:32:29.307Z,100685.09
2019-04-20T15:34:58.240Z,100679.23
2019-04-20T15:37:26.971Z,100670.33
2019-04-20T15:39:57.023Z,100671.27
2019-04-20T15:42:27.641Z,100679.56
2019-04-20T15:44:57.689Z,100675.91
2019-04-20T15:47:27.909Z,100675.44
2019-04-20T15:49:58.052Z,100676.20
2019-04-20T15:52:31.854Z,100679.48
2019-04-20T15:55:03.062Z,100680.64
2019-04-20T15:57:29.693Z,100681.59
2019-04-20T15:59:58.531Z,100685.02
2019-04-20T16:02:33.617Z,100675.69
2019-04-20T16:05:04.149Z,100670.98
2019-04-20T16:07:40.718Z,100675.43
2019-04-20T16:10:05.498Z,100671.32
2019-04-20T16:12:35.156Z,100679.30
2019-04-20T16:15:05.245Z,100683.05
2019-04-20T16:17:39.015Z,100679.44
2019-04-20T16:20:09.057Z,100674.34
2019-04-20T16:22:36.611Z,100679.91
2019-04-20T16:25:23.810Z,100675.52
2019-04-20T16:27:53.852Z,100673.77
2019-04-20T16:30:23.380Z,100676.36
2019-04-20T16:32:52.569Z,100676.30
2019-04-20T16:35:22.453Z,100681.86
2019-04-20T16:37:52.647Z,100681.52
2019-04-20T16:40:21.561Z,100686.95
2019-04-20T16:42:50.372Z,100686.33
2019-04-20T16:45:19.218Z,100687.53
2019-04-20T16:47:48.275Z,100687.45
2019-04-20T16:50:17.280Z,100692.06
2019-04-20T16:52:46.568Z,100693.95
2019-04-20T16:55:16.609Z,100688.80
2019-04-20T16:57:47.938Z,100694.55
2019-04-20T17:00:17.903Z,100689.62
2019-04-20T17:02:47.975Z,100689.69
2019-04-20T17:05:16.994Z,100690.50
2019-04-20T17:07:57.387Z,100690.57
2019-04-20T17:10:26.553Z,100700.27
2019-04-20T17:12:55.701Z,100692.98
2019-04-20T17:15:25.535Z,100695.36
2019-04-20T17:17:56.725Z,100699.83
2019-04-20T17:20:25.715Z,100699.28
2019-04-20T17:22:56.237Z,100699.02
2019-04-20T17:25:25.901Z,100696.91
2019-04-20T17:27:59.561Z,100696.63
2019-04-20T17:30:39.985Z,100700.80
2019-04-20T17:33:22.789Z,100703.92
2019-04-20T17:35:59.371Z,100702.05
2019-04-20T17:38:20.672Z,100702.55
2019-04-20T17:41:03.106Z,100702.27
2019-04-20T17:43:29.392Z,100704.84
2019-04-20T17:45:59.625Z,100706.64
2019-04-20T17:48:35.021Z,100710.55
2019-04-20T17:51:11.069Z,100709.47
2019-04-20T17:53:44.621Z,100713.41
2019-04-20T17:56:07.484Z,100711.58
2019-04-20T17:58:39.516Z,100711.24
2019-04-20T18:01:35.836Z,100719.85
2019-04-20T18:04:31.094Z,100723.91
2019-04-20T18:06:43.694Z,100725.30
2019-04-20T18:09:10.893Z,100729.91
2019-04-20T18:11:38.593Z,100724.81
2019-04-20T18:14:11.063Z,100727.83
2019-04-20T18:16:52.374Z,100735.89
2019-04-20T18:19:13.281Z,100735.63
2019-04-20T18:21:43.421Z,100740.19
2019-04-20T18:24:24.165Z,100745.78
2019-04-20T18:27:03.039Z,100747.19
2019-04-20T18:29:32.840Z,100747.90
2019-04-20T18:32:01.910Z,100744.30
2019-04-20T18:34:46.795Z,100747.33
2019-04-20T18:37:17.245Z,100745.66
2019-04-20T18:39:54.778Z,100748.66
2019-04-20T18:42:24.985Z,100751.64
2019-04-20T18:45:08.948Z,100747.38
2019-04-20T18:47:42.162Z,100752.20
2019-04-20T18:49:57.123Z,100752.66
2019-04-20T18:52:19.778Z,100755.51
2019-04-20T18:54:53.346Z,100748.18
2019-04-20T18:57:24.871Z,100750.71
2019-04-20T18:59:54.484Z,100747.19
2019-04-20T19:02:26.816Z,100751.78
2019-04-20T19:04:50.745Z,100757.66
2019-04-20T19:07:19.825Z,100761.27
2019-04-20T19:09:53.268Z,100757.38
2019-04-20T19:12:21.685Z,100758.59
2019-04-20T19:15:12.103Z,100759.61
2019-04-20T19:17:51.029Z,100754.92
2019-04-20T19:20:14.089Z,100760.55
2019-04-20T19:22:44.026Z,100762.05
2019-04-20T19:25:19.827Z,100761.22
2019-04-20T19:27:49.374Z,100756.16
2019-04-20T19:30:24.929Z,100756.63
2019-04-20T19:33:03.909Z,100755.45
2019-04-20T19:35:30.852Z,100753.28
2019-04-20T19:37:57.379Z,100757.06
2019-04-20T19:40:31.282Z,100753.58
2019-04-20T19:43:01.272Z,100752.06
2019-04-20T19:45:43.875Z,100757.69
2019-04-20T19:48:04.376Z,100762.08
2019-04-20T19:50:45.659Z,100757.77
2019-04-20T19:53:18.366Z,100757.47
2019-04-20T19:55:40.158Z,100758.77
2019-04-20T19:58:10.662Z,100759.48
2019-04-20T20:00:40.946Z,100761.88
2019-04-20T20:03:11.882Z,100772.36
2019-04-20T20:05:45.198Z,100768.92
2019-04-20T20:08:15.041Z,100769.44
2019-04-20T20:10:44.151Z,100762.78
2019-04-20T20:13:13.197Z,100766.58
2019-04-20T20:15:43.670Z,100759.46
2019-04-20T20:18:30.032Z,100760.77
2019-04-20T20:20:59.605Z,100760.58
2019-04-20T20:23:14.287Z,100765.59
2019-04-20T20:25:47.638Z,100758.09
2019-04-20T20:28:29.944Z,100754.00
2019-04-20T20:30:57.013Z,100746.91
2019-04-20T20:33:36.353Z,100755.80
2019-04-20T20:35:53.957Z,100747.28
2019-04-20T20:38:25.574Z,100749.26
2019-04-20T20:40:58.928Z,100747.21
2019-04-20T20:43:31.777Z,100746.48
2019-04-20T20:46:01.262Z,100741.83
2019-04-20T20:48:35.898Z,100739.09
2019-04-20T20:51:05.202Z,100736.10
2019-04-20T20:53:38.004Z,100731.13
2019-04-20T20:56:03.959Z,100735.72
2019-04-20T20:58:36.166Z,100737.51
2019-04-20T21:00:57.575Z,100744.00
2019-04-20T21:03:30.604Z,100745.30
2019-04-20T21:05:53.643Z,100741.95
2019-04-20T21:08:23.818Z,100743.76
2019-04-20T21:10:54.734Z,100743.41
2019-04-20T21:13:25.935Z,100743.34
2019-04-20T21:16:02.603Z,100743.52
2019-04-20T21:18:44.914Z,100738.58
2019-04-20T21:21:11.144Z,100741.41
2019-04-20T21:23:36.817Z,100741.73
2019-04-20T21:26:12.854Z,100746.36
2019-04-20T21:28:41.723Z,100740.83
2019-04-20T21:31:14.618Z,100738.39
2019-04-20T21:33:42.831Z,100743.42
2019-04-20T21:36:13.484Z,100741.13
2019-04-20T21:38:43.330Z,100739.89
2019-04-20T21:41:16.519Z,100736.00
2019-04-20T21:43:44.536Z,100737.39
2019-04-20T21:46:14.206Z,100746.31
2019-04-20T21:48:56.018Z,100733.85
2019-04-20T21:51:29.312Z,100732.24
2019-04-20T21:53:44.396Z,100732.44
2019-04-20T21:56:13.469Z,100738.98
2019-04-20T21:58:49.442Z,100731.85
2019-04-20T22:01:24.251Z,100733.91
2019-04-20T22:03:45.164Z,100739.77
2019-04-20T22:06:14.160Z,100744.05
2019-04-20T22:08:45.934Z,100740.22
2019-04-20T22:11:13.631Z,100736.89
2019-04-20T22:13:44.601Z,100740.64
2019-04-20T22:16:14.757Z,100740.64
2019-04-20T22:18:54.013Z,100732.25
2019-04-20T22:21:22.601Z,100733.95
2019-04-20T22:24:00.602Z,100728.42
2019-04-20T22:26:25.384Z,100729.06
2019-04-20T22:28:47.824Z,100734.20
2019-04-20T22:31:18.199Z,100732.19
2019-04-20T22:33:48.701Z,100730.00
2019-04-20T22:36:18.204Z,100726.92
2019-04-20T22:39:07.499Z,100726.12
2019-04-20T22:41:40.561Z,100720.61
2019-04-20T22:44:15.141Z,100727.45
2019-04-20T22:46:42.192Z,100730.86
2019-04-20T22:49:30.302Z,100723.73
2019-04-20T22:51:51.997Z,100726.69
2019-04-20T22:54:27.596Z,100718.20
2019-04-20T22:56:55.047Z,100716.37
2019-04-20T22:59:18.478Z,100711.56
2019-04-20T23:01:48.560Z,100714.01
2019-04-20T23:04:14.885Z,100715.30
2019-04-20T23:06:48.108Z,100721.24
2019-04-20T23:09:15.121Z,100714.80
2019-04-20T23:11:45.211Z,100708.89
2019-04-20T23:14:14.340Z,100712.22
2019-04-20T23:16:48.463Z,100709.83
2019-04-20T23:19:28.140Z,100709.52
2019-04-20T23:21:48.550Z,100702.55
2019-04-20T23:24:17.114Z,100700.47
2019-04-20T23:26:47.619Z,100697.87
2019-04-20T23:29:17.500Z,100694.79
2019-04-20T23:31:55.307Z,100693.00
2019-04-20T23:34:22.435Z,100697.98
2019-04-20T23:36:50.513Z,100694.03
2019-04-20T23:39:19.046Z,100696.22
2019-04-20T23:41:53.733Z,100693.71
2019-04-20T23:44:21.023Z,100685.02
2019-04-20T23:47:01.159Z,100677.48
2019-04-20T23:49:42.857Z,100676.56
2019-04-20T23:52:26.399Z,100671.00
2019-04-20T23:54:34.071Z,100676.80
2019-04-20T23:57:08.102Z,100674.95
2019-04-20T23:59:41.099Z,100674.27
